createdAt,value
2022-09-20T00:01:12.232Z,100905.63
2022-09-20T00:03:45.384Z,100896.84
2022-09-20T00:06:18.031Z,100897.22
2022-09-20T00:08:46.212Z,100895.53
2022-09-20T00:11:17.779Z,100900.56
2022-09-20T00:13:46.174Z,100893.38
2022-09-20T00:16:17.036Z,100899.69
2022-09-20T00:18:44.327Z,100894.09
2022-09-20T00:21:23.051Z,100892.09
2022-09-20T00:23:50.362Z,100884.94
2022-09-20T00:26:17.759Z,100888.53
2022-09-20T00:28:47.297Z,100883.72
2022-09-20T00:31:15.299Z,100883.72
2022-09-20T00:34:01.297Z,100882.94
2022-09-20T00:36:28.645Z,100873.06
2022-09-20T00:39:01.373Z,100876.22
2022-09-20T00:41:30.262Z,100870.69
2022-09-20T00:43:57.936Z,100871.47
2022-09-20T00:46:41.759Z,100874.66
2022-09-20T00:49:29.169Z,100875.84
2022-09-20T00:52:01.238Z,100868.66
2022-09-20T00:54:30.649Z,100861.09
2022-09-20T00:56:58.237Z,100865.47
2022-09-20T00:59:37.511Z,100864.28
2022-09-20T01:02:28.306Z,100867.41
2022-09-20T01:04:57.879Z,100860.66
2022-09-20T01:07:26.482Z,100865.00
2022-09-20T01:09:53.722Z,100849.09
2022-09-20T01:12:30.402Z,100852.22
2022-09-20T01:14:59.991Z,100853.41
2022-09-20T01:17:31.795Z,100851.41
2022-09-20T01:20:13.534Z,100855.38
2022-09-20T01:22:52.743Z,100856.16
2022-09-20T01:25:34.847Z,100851.00
2022-09-20T01:28:02.136Z,100853.75
2022-09-20T01:30:45.033Z,100856.09
2022-09-20T01:33:27.812Z,100857.28
2022-09-20T01:35:59.519Z,100857.28
2022-09-20T01:38:29.350Z,100860.41
2022-09-20T01:41:20.612Z,100857.22
2022-09-20T01:44:07.020Z,100844.13
2022-09-20T01:46:37.012Z,100847.25
2022-09-20T01:49:16.557Z,100849.25
2022-09-20T01:52:05.289Z,100853.19
2022-09-20T01:54:38.260Z,100841.69
2022-09-20T01:57:14.879Z,100850.44
2022-09-20T01:59:52.412Z,100855.16
2022-09-20T02:02:31.441Z,100855.16
2022-09-20T02:05:13.582Z,100847.97
2022-09-20T02:07:52.793Z,100843.94
2022-09-20T02:10:20.025Z,100848.19
2022-09-20T02:13:01.303Z,100855.66
2022-09-20T02:15:36.588Z,100855.25
2022-09-20T02:18:21.208Z,100851.28
2022-09-20T02:20:57.082Z,100854.06
2022-09-20T02:23:39.179Z,100856.09
2022-09-20T02:26:30.821Z,100853.34
2022-09-20T02:29:13.100Z,100860.50
2022-09-20T02:31:46.260Z,100860.84
2022-09-20T02:34:28.082Z,100859.59
2022-09-20T02:37:07.726Z,100859.16
2022-09-20T02:39:51.899Z,100861.91
2022-09-20T02:42:29.983Z,100848.44
2022-09-20T02:45:48.332Z,100861.09
2022-09-20T02:48:22.381Z,100855.16
2022-09-20T02:51:16.869Z,100856.75
2022-09-20T02:53:48.467Z,100857.91
2022-09-20T02:56:34.139Z,100856.31
2022-09-20T02:59:08.466Z,100864.19
2022-09-20T03:01:55.013Z,100863.38
2022-09-20T03:04:40.830Z,100867.38
2022-09-20T03:07:31.635Z,100861.84
2022-09-20T03:10:21.379Z,100859.06
2022-09-20T03:13:12.748Z,100868.56
2022-09-20T03:16:18.230Z,100873.69
2022-09-20T03:19:05.112Z,100867.72
2022-09-20T03:22:10.265Z,100868.84
2022-09-20T03:25:16.382Z,100870.38
2022-09-20T03:27:52.994Z,100871.13
2022-09-20T03:30:50.977Z,100868.31
2022-09-20T03:33:37.632Z,100883.78
2022-09-20T03:36:32.614Z,100888.13
2022-09-20T03:39:31.867Z,100898.81
2022-09-20T03:42:20.396Z,100896.44
2022-09-20T03:44:59.559Z,100894.03
2022-09-20T03:47:43.038Z,100902.34
2022-09-20T03:50:29.084Z,100905.09
2022-09-20T03:53:33.743Z,100903.94
2022-09-20T03:56:22.550Z,100900.78
2022-09-20T03:59:07.933Z,100898.91
2022-09-20T04:01:52.183Z,100901.66
2022-09-20T04:04:30.584Z,100914.28
2022-09-20T04:07:09.728Z,100919.81
2022-09-20T04:10:08.135Z,100932.94
2022-09-20T04:12:38.213Z,100928.97
2022-09-20T04:15:31.625Z,100934.53
2022-09-20T04:18:10.845Z,100933.72
2022-09-20T04:20:59.691Z,100934.47
2022-09-20T04:24:04.391Z,100931.31
2022-09-20T04:26:36.432Z,100928.94
2022-09-20T04:29:28.299Z,100930.97
2022-09-20T04:32:12.097Z,100936.81
2022-09-20T04:35:05.331Z,100944.94
2022-09-20T04:37:36.273Z,100945.19
2022-09-20T04:40:15.790Z,100942.75
2022-09-20T04:43:17.732Z,100947.50
2022-09-20T04:45:51.688Z,100945.88
2022-09-20T04:48:48.036Z,100947.50
2022-09-20T04:51:47.352Z,100947.16
2022-09-20T04:54:47.539Z,100948.22
2022-09-20T04:57:34.573Z,100947.78
2022-09-20T05:00:12.399Z,100949.78
2022-09-20T05:03:19.806Z,100943.78
2022-09-20T05:06:17.978Z,100945.50
2022-09-20T05:09:15.166Z,100939.66
2022-09-20T05:11:52.584Z,100933.75
2022-09-20T05:14:37.696Z,100937.63
2022-09-20T05:17:16.703Z,100937.44
2022-09-20T05:19:47.505Z,100924.75
2022-09-20T05:22:40.901Z,100931.06
2022-09-20T05:25:29.963Z,100928.47
2022-09-20T05:28:31.756Z,100938.84
2022-09-20T05:31:03.688Z,100938.75
2022-09-20T05:34:02.716Z,100934.13
2022-09-20T05:36:59.021Z,100934.88
2022-09-20T05:39:31.965Z,100933.94
2022-09-20T05:42:10.185Z,100924.47
2022-09-20T05:45:05.547Z,100916.31
2022-09-20T05:47:57.107Z,100919.00
2022-09-20T05:50:39.208Z,100930.88
2022-09-20T05:53:37.290Z,100924.72
2022-09-20T05:56:25.917Z,100929.84
2022-09-20T05:59:07.637Z,100923.66
2022-09-20T06:02:09.309Z,100921.25
2022-09-20T06:04:44.530Z,100921.56
2022-09-20T06:07:45.913Z,100920.31
2022-09-20T06:10:37.221Z,100927.91
2022-09-20T06:13:34.004Z,100932.38
2022-09-20T06:16:04.794Z,100930.78
2022-09-20T06:18:50.761Z,100936.56
2022-09-20T06:21:42.901Z,100938.69
2022-09-20T06:24:19.828Z,100937.13
2022-09-20T06:26:49.853Z,100948.06
2022-09-20T06:29:20.394Z,100946.00
2022-09-20T06:31:47.615Z,100954.16
2022-09-20T06:34:16.088Z,100950.91
2022-09-20T06:37:10.033Z,100952.34
2022-09-20T06:40:09.265Z,100957.66
2022-09-20T06:42:37.863Z,100960.31
2022-09-20T06:45:05.574Z,100962.59
2022-09-20T06:47:35.742Z,100954.88
2022-09-20T06:50:07.301Z,100958.91
2022-09-20T06:52:35.821Z,100953.41
2022-09-20T06:55:07.643Z,100959.63
2022-09-20T06:57:38.180Z,100953.38
2022-09-20T07:00:07.199Z,100956.34
2022-09-20T07:02:34.535Z,100958.56
2022-09-20T07:05:01.879Z,100949.88
2022-09-20T07:07:28.966Z,100952.03
2022-09-20T07:09:56.125Z,100954.59
2022-09-20T07:12:23.291Z,100952.47
2022-09-20T07:14:50.819Z,100952.06
2022-09-20T07:17:18.047Z,100946.41
2022-09-20T07:19:45.114Z,100951.81
2022-09-20T07:22:12.404Z,100954.75
2022-09-20T07:24:41.344Z,100958.53
2022-09-20T07:27:08.476Z,100964.53
2022-09-20T07:29:35.797Z,100961.47
2022-09-20T07:32:03.104Z,100975.91
2022-09-20T07:34:30.360Z,100977.25
2022-09-20T07:36:59.285Z,100974.38
2022-09-20T07:39:27.056Z,100973.06
2022-09-20T07:41:54.293Z,100974.81
2022-09-20T07:44:22.255Z,100972.56
2022-09-20T07:46:53.523Z,100977.25
2022-09-20T07:49:22.140Z,100980.53
2022-09-20T07:51:50.749Z,100982.91
2022-09-20T07:54:18.420Z,100984.28
2022-09-20T07:56:46.205Z,100991.47
2022-09-20T07:59:13.928Z,100994.34
2022-09-20T08:01:42.535Z,100992.19
2022-09-20T08:04:10.715Z,101005.09
2022-09-20T08:06:42.964Z,100999.44
2022-09-20T08:09:11.638Z,100996.06
2022-09-20T08:11:40.251Z,101001.69
2022-09-20T08:14:09.271Z,101002.59
2022-09-20T08:16:42.029Z,100997.91
2022-09-20T08:19:11.576Z,101002.78
2022-09-20T08:21:39.955Z,100995.59
2022-09-20T08:24:07.186Z,100996.00
2022-09-20T08:26:36.103Z,101007.16
2022-09-20T08:29:05.953Z,101002.00
2022-09-20T08:31:37.194Z,101005.59
2022-09-20T08:34:06.993Z,101005.59
2022-09-20T08:36:37.017Z,101004.38
2022-09-20T08:42:02.354Z,101013.16
2022-09-20T08:44:35.515Z,101022.34
2022-09-20T08:47:10.115Z,101019.16
2022-09-20T08:49:38.867Z,101021.53
2022-09-20T08:52:10.368Z,101013.16
2022-09-20T08:54:37.910Z,101020.31
2022-09-20T08:57:13.241Z,101018.72
2022-09-20T08:59:41.106Z,101023.91
2022-09-20T09:02:17.969Z,101018.34
2022-09-20T09:04:46.421Z,101017.16
2022-09-20T09:07:16.267Z,101023.88
2022-09-20T09:09:47.565Z,101020.72
2022-09-20T09:12:24.819Z,101021.91
2022-09-20T09:14:57.744Z,101024.31
2022-09-20T09:17:28.116Z,101020.34
2022-09-20T09:19:56.171Z,101023.13
2022-09-20T09:22:37.365Z,101019.94
2022-09-20T09:25:34.482Z,101013.97
2022-09-20T09:28:03.729Z,101017.94
2022-09-20T09:30:34.408Z,101024.69
2022-09-20T09:33:31.681Z,101028.28
2022-09-20T09:36:00.552Z,101016.72
2022-09-20T09:38:31.492Z,101014.75
2022-09-20T09:41:01.344Z,101015.94
2022-09-20T09:43:31.607Z,101014.34
2022-09-20T09:46:19.183Z,101014.31
2022-09-20T09:48:50.126Z,101011.50
2022-09-20T09:51:20.120Z,101008.41
2022-09-20T09:53:51.450Z,101005.19
2022-09-20T09:56:18.597Z,101000.75
2022-09-20T09:58:56.346Z,101005.13
2022-09-20T10:01:33.238Z,101000.78
2022-09-20T10:04:12.672Z,100996.78
2022-09-20T10:06:55.771Z,100999.16
2022-09-20T10:09:54.849Z,100995.59
2022-09-20T10:12:59.812Z,100992.38
2022-09-20T10:15:46.869Z,100992.38
2022-09-20T10:18:30.582Z,100984.84
2022-09-20T10:21:08.600Z,100990.00
2022-09-20T10:24:09.297Z,100991.63
2022-09-20T10:26:39.453Z,100982.06
2022-09-20T10:29:35.739Z,100982.81
2022-09-20T10:32:28.315Z,100983.63
2022-09-20T10:35:26.750Z,100975.63
2022-09-20T10:38:14.744Z,100965.28
2022-09-20T10:41:16.412Z,100969.28
2022-09-20T10:44:10.511Z,100964.16
2022-09-20T10:47:02.697Z,100967.75
2022-09-20T10:50:07.270Z,100958.22
2022-09-20T10:53:03.681Z,100964.97
2022-09-20T10:55:47.469Z,100961.00
2022-09-20T10:58:38.146Z,100962.19
2022-09-20T11:01:23.499Z,100958.56
2022-09-20T11:04:09.275Z,100958.59
2022-09-20T11:07:05.242Z,100958.59
2022-09-20T11:09:38.569Z,100958.94
2022-09-20T11:12:33.125Z,100951.81
2022-09-20T11:15:15.733Z,100940.22
2022-09-20T11:17:59.941Z,100940.19
2022-09-20T11:20:56.540Z,100933.84
2022-09-20T11:24:04.770Z,100928.59
2022-09-20T11:26:52.347Z,100922.66
2022-09-20T11:29:28.046Z,100930.16
2022-09-20T11:32:07.292Z,100930.22
2022-09-20T11:34:40.393Z,100931.91
2022-09-20T11:37:10.001Z,100923.03
2022-09-20T11:39:49.352Z,100928.16
2022-09-20T11:42:24.316Z,100933.31
2022-09-20T11:44:52.010Z,100931.31
2022-09-20T11:47:52.804Z,100938.53
2022-09-20T11:50:37.753Z,100946.44
2022-09-20T11:53:36.921Z,100940.81
2022-09-20T11:56:21.208Z,100944.41
2022-09-20T11:58:56.054Z,100942.06
2022-09-20T12:01:41.952Z,100950.91
2022-09-20T12:04:32.894Z,100951.75
2022-09-20T12:07:09.642Z,100956.16
2022-09-20T12:09:43.490Z,100948.94
2022-09-20T12:12:45.642Z,100943.78
2022-09-20T12:15:22.011Z,100954.13
2022-09-20T12:17:49.911Z,100949.72
2022-09-20T12:20:35.646Z,100950.97
2022-09-20T12:23:40.649Z,100952.53
2022-09-20T12:26:23.184Z,100949.41
2022-09-20T12:28:54.942Z,100952.19
2022-09-20T12:31:22.519Z,100954.97
2022-09-20T12:34:22.492Z,100961.69
2022-09-20T12:36:55.713Z,100964.44
2022-09-20T12:39:44.261Z,100960.53
2022-09-20T12:42:11.789Z,100957.31
2022-09-20T12:45:00.368Z,100949.34
2022-09-20T12:47:38.395Z,100949.34
2022-09-20T12:50:33.068Z,100948.59
2022-09-20T12:53:07.317Z,100949.75
2022-09-20T12:55:44.095Z,100943.78
2022-09-20T12:58:14.597Z,100947.41
2022-09-20T13:00:45.437Z,100943.03
2022-09-20T13:03:15.427Z,100937.88
2022-09-20T13:05:47.447Z,100942.28
2022-09-20T13:08:31.496Z,100936.34
2022-09-20T13:11:07.582Z,100939.50
2022-09-20T13:13:49.944Z,100941.47
2022-09-20T13:16:24.484Z,100937.44
2022-09-20T13:19:02.105Z,100939.06
2022-09-20T13:21:29.661Z,100932.66
2022-09-20T13:23:57.052Z,100924.69
2022-09-20T13:26:33.161Z,100932.66
2022-09-20T13:29:02.720Z,100928.28
2022-09-20T13:31:32.826Z,100937.84
2022-09-20T13:34:21.048Z,100943.38
2022-09-20T13:36:55.886Z,100937.78
2022-09-20T13:39:28.192Z,100937.44
2022-09-20T13:42:02.544Z,100935.44
2022-09-20T13:44:34.847Z,100927.91
2022-09-20T13:47:07.294Z,100932.69
2022-09-20T13:49:34.739Z,100921.13
2022-09-20T13:52:22.376Z,100920.31
2022-09-20T13:54:49.651Z,100925.13
2022-09-20T13:57:23.195Z,100918.75
2022-09-20T13:59:51.459Z,100915.16
2022-09-20T14:02:29.398Z,100910.81
2022-09-20T14:05:00.753Z,100917.19
2022-09-20T14:07:29.785Z,100918.38
2022-09-20T14:09:59.065Z,100927.97
2022-09-20T14:12:27.816Z,100924.75
2022-09-20T14:14:55.703Z,100927.19
2022-09-20T14:17:25.012Z,100923.16
2022-09-20T14:19:54.841Z,100925.97
2022-09-20T14:22:28.169Z,100935.50
2022-09-20T14:25:04.716Z,100934.28
2022-09-20T14:27:32.845Z,100933.91
2022-09-20T14:30:00.064Z,100939.06
2022-09-20T14:32:47.295Z,100941.47
2022-09-20T14:35:22.442Z,100942.66
2022-09-20T14:38:06.516Z,100940.66
2022-09-20T14:40:43.869Z,100942.66
2022-09-20T14:43:28.892Z,100944.66
2022-09-20T14:46:03.443Z,100936.28
2022-09-20T14:48:43.485Z,100935.88
2022-09-20T14:51:16.558Z,100934.31
2022-09-20T14:53:45.962Z,100927.94
2022-09-20T14:56:16.302Z,100921.53
2022-09-20T14:59:04.564Z,100930.31
2022-09-20T15:01:32.469Z,100925.94
2022-09-20T15:04:06.081Z,100922.75
2022-09-20T15:06:36.274Z,100925.16
2022-09-20T15:09:03.723Z,100925.16
2022-09-20T15:11:30.884Z,100917.59
2022-09-20T15:13:58.128Z,100930.31
2022-09-20T15:16:25.529Z,100921.16
2022-09-20T15:18:52.731Z,100920.75
2022-09-20T15:21:19.935Z,100924.31
2022-09-20T15:23:47.035Z,100919.13
2022-09-20T15:26:15.460Z,100924.31
2022-09-20T15:28:43.069Z,100929.09
2022-09-20T15:31:11.094Z,100929.91
2022-09-20T15:33:38.434Z,100928.69
2022-09-20T15:36:06.230Z,100920.75
2022-09-20T15:38:33.484Z,100928.22
2022-09-20T15:41:04.364Z,100926.25
2022-09-20T15:43:31.839Z,100927.00
2022-09-20T15:46:02.041Z,100927.00
2022-09-20T15:48:30.983Z,100925.00
2022-09-20T15:51:02.137Z,100924.22
2022-09-20T15:53:37.228Z,100925.41
2022-09-20T15:56:39.107Z,100925.44
2022-09-20T15:59:11.281Z,100931.78
2022-09-20T16:01:40.637Z,100937.34
2022-09-20T16:04:14.005Z,100927.00
2022-09-20T16:06:43.713Z,100931.75
2022-09-20T16:09:12.498Z,100929.34
2022-09-20T16:11:40.457Z,100931.75
2022-09-20T16:14:08.257Z,100933.31
2022-09-20T16:21:17.291Z,100941.25
2022-09-20T16:23:50.034Z,100942.84
2022-09-20T16:26:18.539Z,100938.09
2022-09-20T16:28:47.678Z,100932.91
2022-09-20T16:31:34.909Z,100930.91
2022-09-20T16:34:04.256Z,100932.06
2022-09-20T16:36:32.746Z,100932.84
2022-09-20T16:39:00.001Z,100930.06
2022-09-20T16:41:28.793Z,100926.84
2022-09-20T16:43:56.151Z,100920.91
2022-09-20T16:49:35.158Z,100926.78
2022-09-20T16:52:04.434Z,100920.44
2022-09-20T16:54:32.201Z,100910.88
2022-09-20T16:57:00.122Z,100908.88
2022-09-20T16:59:27.225Z,100920.41
2022-09-20T17:01:54.429Z,100913.22
2022-09-20T17:04:21.557Z,100914.00
2022-09-20T17:06:49.958Z,100913.59
2022-09-20T17:09:17.749Z,100924.31
2022-09-20T17:11:47.424Z,100916.38
2022-09-20T17:14:17.518Z,100925.09
2022-09-20T17:16:48.590Z,100931.81
2022-09-20T17:19:18.757Z,100923.84
2022-09-20T17:21:51.190Z,100935.78
2022-09-20T17:24:20.393Z,100928.22
2022-09-20T17:26:49.087Z,100930.16
2022-09-20T17:29:17.697Z,100935.34
2022-09-20T17:31:51.526Z,100934.56
2022-09-20T17:34:22.187Z,100930.59
2022-09-20T17:36:50.647Z,100931.38
2022-09-20T17:39:18.432Z,100947.25
2022-09-20T17:41:50.175Z,100948.47
2022-09-20T17:44:17.810Z,100951.66
2022-09-20T17:46:48.174Z,100955.63
2022-09-20T17:49:20.372Z,100957.59
2022-09-20T17:51:52.737Z,100959.59
2022-09-20T17:54:21.107Z,100953.63
2022-09-20T17:56:50.567Z,100955.22
2022-09-20T17:59:19.097Z,100953.63
2022-09-20T18:01:48.470Z,100952.81
2022-09-20T18:04:16.165Z,100961.13
2022-09-20T18:06:48.212Z,100964.28
2022-09-20T18:09:17.806Z,100961.50
2022-09-20T18:11:50.812Z,100967.03
2022-09-20T18:14:20.512Z,100975.72
2022-09-20T18:16:47.972Z,100969.34
2022-09-20T18:19:16.351Z,100976.84
2022-09-20T18:21:44.105Z,100978.81
2022-09-20T18:24:12.003Z,100975.22
2022-09-20T18:26:40.273Z,100987.53
2022-09-20T18:29:12.525Z,100988.72
2022-09-20T18:31:52.247Z,100995.88
2022-09-20T18:34:21.837Z,101001.03
2022-09-20T18:36:55.479Z,101001.06
2022-09-20T18:39:24.577Z,100999.13
2022-09-20T18:41:53.242Z,100996.00
2022-09-20T18:44:21.804Z,100994.81
2022-09-20T18:46:49.709Z,100999.22
2022-09-20T18:49:17.229Z,100994.44
2022-09-20T18:51:46.517Z,101001.56
2022-09-20T18:54:14.001Z,101002.34
2022-09-20T18:56:42.648Z,101000.72
2022-09-20T18:59:20.023Z,101007.44
2022-09-20T19:01:59.334Z,101007.44
2022-09-20T19:04:45.376Z,101009.78
2022-09-20T19:07:28.622Z,101013.31
2022-09-20T19:09:58.741Z,101005.75
2022-09-20T19:12:48.468Z,101012.88
2022-09-20T19:15:33.569Z,101018.81
2022-09-20T19:18:18.358Z,101019.97
2022-09-20T19:21:07.160Z,101025.44
2022-09-20T19:23:57.951Z,101024.22
2022-09-20T19:26:30.553Z,101029.75
2022-09-20T19:29:00.237Z,101029.72
2022-09-20T19:31:32.754Z,101029.72
2022-09-20T19:34:03.502Z,101036.44
2022-09-20T19:36:52.317Z,101030.09
2022-09-20T19:39:19.477Z,101038.03
2022-09-20T19:42:14.973Z,101039.25
2022-09-20T19:44:47.938Z,101038.88
2022-09-20T19:47:34.725Z,101040.50
2022-09-20T19:50:18.773Z,101034.16
2022-09-20T19:52:46.292Z,101044.53
2022-09-20T19:55:14.361Z,101034.19
2022-09-20T19:57:49.695Z,101038.97
2022-09-20T20:00:21.370Z,101032.97
2022-09-20T20:02:49.011Z,101033.31
2022-09-20T20:05:21.409Z,101037.28
2022-09-20T20:08:25.940Z,101036.13
2022-09-20T20:11:33.609Z,101044.09
2022-09-20T20:14:28.663Z,101042.09
2022-09-20T20:16:58.638Z,101042.91
2022-09-20T20:19:43.602Z,101044.53
2022-09-20T20:22:32.126Z,101058.81
2022-09-20T20:24:59.504Z,101054.53
2022-09-20T20:27:28.681Z,101050.56
2022-09-20T20:29:56.053Z,101052.19
2022-09-20T20:32:23.593Z,101052.59
2022-09-20T20:34:50.845Z,101055.78
2022-09-20T20:37:18.381Z,101046.25
2022-09-20T20:39:45.628Z,101060.56
2022-09-20T20:42:13.031Z,101057.38
2022-09-20T20:44:43.892Z,101058.16
2022-09-20T20:47:11.573Z,101062.56
2022-09-20T20:49:39.017Z,101066.13
2022-09-20T20:52:06.144Z,101073.66
2022-09-20T20:54:33.446Z,101059.66
2022-09-20T20:57:02.245Z,101059.22
2022-09-20T20:59:29.993Z,101061.97
2022-09-20T21:01:57.154Z,101061.53
2022-09-20T21:04:25.644Z,101066.69
2022-09-20T21:06:52.985Z,101071.47
2022-09-20T21:09:20.427Z,101067.53
2022-09-20T21:11:48.678Z,101062.78
2022-09-20T21:14:16.425Z,101066.38
2022-09-20T21:16:44.089Z,101064.06
2022-09-20T21:19:18.427Z,101060.09
2022-09-20T21:21:48.043Z,101058.09
2022-09-20T21:24:17.580Z,101050.91
2022-09-20T21:26:46.411Z,101059.56
2022-09-20T21:29:15.818Z,101052.75
2022-09-20T21:31:45.485Z,101050.72
2022-09-20T21:34:15.594Z,101049.16
2022-09-20T21:36:44.913Z,101052.31
2022-09-20T21:39:12.516Z,101045.94
2022-09-20T21:41:40.449Z,101052.31
2022-09-20T21:44:10.135Z,101051.94
2022-09-20T21:46:42.259Z,101053.94
2022-09-20T21:49:11.426Z,101050.38
2022-09-20T21:51:39.758Z,101047.97
2022-09-20T21:54:06.919Z,101041.19
2022-09-20T21:56:36.149Z,101040.34
2022-09-20T21:59:04.599Z,101030.81
2022-09-20T22:01:35.156Z,101033.97
2022-09-20T22:04:08.409Z,101033.09
2022-09-20T22:06:43.204Z,101036.22
2022-09-20T22:09:11.616Z,101029.81
2022-09-20T22:11:41.247Z,101032.59
2022-09-20T22:14:10.005Z,101025.03
2022-09-20T22:16:40.397Z,101023.81
2022-09-20T22:19:11.426Z,101022.66
2022-09-20T22:21:45.019Z,101026.25
2022-09-20T22:24:13.834Z,101026.69
2022-09-20T22:26:43.265Z,101030.66
2022-09-20T22:29:11.031Z,101025.53
2022-09-20T22:31:45.686Z,101025.53
2022-09-20T22:34:21.612Z,101031.50
2022-09-20T22:36:49.194Z,101028.34
2022-09-20T22:39:17.367Z,101022.34
2022-09-20T22:41:45.136Z,101024.34
2022-09-20T22:44:12.549Z,101025.13
2022-09-20T22:46:40.400Z,101035.44
2022-09-20T22:49:09.682Z,101023.56
2022-09-20T22:51:37.691Z,101025.91
2022-09-20T22:54:10.376Z,101025.91
2022-09-20T22:56:38.681Z,101022.75
2022-09-20T22:59:08.238Z,101017.97
2022-09-20T23:01:37.500Z,101017.53
2022-09-20T23:04:07.990Z,101021.88
2022-09-20T23:06:39.296Z,101021.81
2022-09-20T23:09:09.570Z,101018.22
2022-09-20T23:11:37.618Z,101017.06
2022-09-20T23:14:06.197Z,101012.69
2022-09-20T23:16:35.701Z,101012.72
2022-09-20T23:19:04.884Z,101018.28
2022-09-20T23:21:32.831Z,101011.16
2022-09-20T23:24:02.249Z,101002.81
2022-09-20T23:26:31.965Z,101010.78
2022-09-20T23:29:07.395Z,101012.38
2022-09-20T23:31:36.837Z,101004.84
2022-09-20T23:34:05.575Z,101006.84
2022-09-20T23:36:35.005Z,101011.66
2022-09-20T23:39:02.182Z,100999.75
2022-09-20T23:41:29.633Z,101001.31
2022-09-20T23:43:57.062Z,101003.66
2022-09-20T23:46:26.278Z,101006.44
2022-09-20T23:48:54.295Z,100990.19
2022-09-20T23:51:25.030Z,100988.63
2022-09-20T23:53:53.370Z,100979.84
2022-09-20T23:56:22.119Z,100986.16
2022-09-20T23:58:50.353Z,100991.72
